createdAt,value
2022-09-25T06:14:52.242Z,5.24
2022-09-25T06:24:51.273Z,5.82
2022-09-25T06:34:51.187Z,4.34
2022-09-25T06:44:51.310Z,3.43
2022-09-25T06:54:51.201Z,4.49
2022-09-25T07:04:51.184Z,4.75
2022-09-25T07:14:51.240Z,4.97
2022-09-25T07:24:51.191Z,3.25
2022-09-25T07:34:51.371Z,3.40
2022-09-25T07:44:51.637Z,4.57
2022-09-25T07:54:51.242Z,4.56
2022-09-25T08:04:51.297Z,5.54
2022-09-25T08:14:51.254Z,4.52
2022-09-25T08:24:51.231Z,3.89
2022-09-25T08:34:51.411Z,6.14
2022-09-25T08:45:09.382Z,6.01
2022-09-25T08:54:54.132Z,5.13
2022-09-25T09:04:51.604Z,6.72
2022-09-25T09:14:51.579Z,5.59
2022-09-25T09:24:51.844Z,4.68
2022-09-25T09:35:05.861Z,4.94
2022-09-25T09:44:51.674Z,3.72
2022-09-25T09:54:51.542Z,5.11
2022-09-25T10:04:51.578Z,3.01
2022-09-25T10:14:52.525Z,7.50
2022-09-25T10:24:51.788Z,5.40
2022-09-25T10:34:51.607Z,6.01
2022-09-25T10:44:55.654Z,6.01
2022-09-25T10:54:51.556Z,7.44
2022-09-25T11:04:51.541Z,4.35
2022-09-25T11:14:51.586Z,5.35
2022-09-25T11:24:51.623Z,3.32
2022-09-25T11:34:51.549Z,5.98
2022-09-25T11:44:51.566Z,5.96
2022-09-25T11:54:51.658Z,6.14
2022-09-25T12:04:51.683Z,6.36
2022-09-25T12:14:51.572Z,8.71
2022-09-25T12:24:51.722Z,7.48
2022-09-25T12:34:51.627Z,9.18
2022-09-25T12:44:51.747Z,7.70
2022-09-25T12:54:51.701Z,7.63
2022-09-25T13:04:51.747Z,6.84
2022-09-25T13:14:51.720Z,6.06
2022-09-25T13:24:51.630Z,6.97
2022-09-25T13:34:51.755Z,12.58
2022-09-25T13:44:51.719Z,13.26
2022-09-25T13:54:51.881Z,9.69
2022-09-25T14:04:51.880Z,8.24
2022-09-25T14:14:51.860Z,5.20
2022-09-25T14:24:51.893Z,10.12
2022-09-25T14:34:51.737Z,16.18
2022-09-25T14:44:51.799Z,13.74
2022-09-25T14:54:51.784Z,8.84
2022-09-25T15:04:52.005Z,3.04
2022-09-25T15:14:51.897Z,5.75
2022-09-25T15:24:51.949Z,13.77
2022-09-25T15:34:51.841Z,10.90
2022-09-25T15:44:52.047Z,12.39
2022-09-25T15:54:51.929Z,8.76
2022-09-25T16:04:51.948Z,7.02
2022-09-25T16:14:51.979Z,4.79
2022-09-25T16:24:52.156Z,4.33
2022-09-25T16:34:51.821Z,1.91
2022-09-25T16:44:51.886Z,0.17
2022-09-25T16:54:51.988Z,0.29
2022-09-25T17:04:52.081Z,0.23
2022-09-25T17:14:52.009Z,0.06
2022-09-25T17:24:52.081Z,0.38
2022-09-25T17:34:51.968Z,0.00
2022-09-25T17:44:52.041Z,0.00
2022-09-25T17:54:52.046Z,0.00
2022-09-25T18:04:52.141Z,0.95
2022-09-25T18:14:52.038Z,0.20
2022-09-25T18:24:52.145Z,0.55
2022-09-25T18:34:52.294Z,1.22
2022-09-25T18:44:52.233Z,0.53
2022-09-25T18:54:52.443Z,0.96
2022-09-25T19:04:52.607Z,0.28
2022-09-25T19:14:52.726Z,0.44
